sensor_id;sensor_type;location;lat;lon;timestamp;P1;durP1;ratioP1;P2;durP2;ratioP2
19778;SDS011;10049;59.306;18.090;2024-03-22T00:02:18;2.40;;;2.10;;
19778;SDS011;10049;59.306;18.090;2024-03-22T00:04:46;2.08;;;1.48;;
19778;SDS011;10049;59.306;18.090;2024-03-22T00:07:12;2.60;;;2.22;;
19778;SDS011;10049;59.306;18.090;2024-03-22T00:09:40;3.75;;;1.90;;
19778;SDS011;10049;59.306;18.090;2024-03-22T00:12:06;4.35;;;2.30;;
19778;SDS011;10049;59.306;18.090;2024-03-22T00:14:34;2.17;;;1.85;;
19778;SDS011;10049;59.306;18.090;2024-03-22T00:17:03;1.95;;;1.77;;
19778;SDS011;10049;59.306;18.090;2024-03-22T00:19:32;2.13;;;1.70;;
19778;SDS011;10049;59.306;18.090;2024-03-22T00:21:58;2.05;;;1.75;;
19778;SDS011;10049;59.306;18.090;2024-03-22T00:24:25;2.05;;;1.80;;
19778;SDS011;10049;59.306;18.090;2024-03-22T00:26:52;3.55;;;2.05;;
19778;SDS011;10049;59.306;18.090;2024-03-22T00:29:20;4.90;;;1.77;;
19778;SDS011;10049;59.306;18.090;2024-03-22T00:31:46;2.50;;;1.77;;
19778;SDS011;10049;59.306;18.090;2024-03-22T00:34:19;2.22;;;1.92;;
19778;SDS011;10049;59.306;18.090;2024-03-22T00:36:46;3.67;;;1.90;;
19778;SDS011;10049;59.306;18.090;2024-03-22T00:39:16;2.70;;;1.55;;
19778;SDS011;10049;59.306;18.090;2024-03-22T00:41:43;7.50;;;1.75;;
19778;SDS011;10049;59.306;18.090;2024-03-22T00:44:10;2.63;;;1.73;;
19778;SDS011;10049;59.306;18.090;2024-03-22T00:46:36;1.70;;;1.50;;
19778;SDS011;10049;59.306;18.090;2024-03-22T00:49:06;2.45;;;1.58;;
19778;SDS011;10049;59.306;18.090;2024-03-22T00:51:34;2.10;;;1.70;;
19778;SDS011;10049;59.306;18.090;2024-03-22T00:54:02;2.90;;;1.70;;
19778;SDS011;10049;59.306;18.090;2024-03-22T00:56:29;2.33;;;1.70;;
19778;SDS011;10049;59.306;18.090;2024-03-22T00:58:56;2.03;;;1.58;;
19778;SDS011;10049;59.306;18.090;2024-03-22T01:01:22;2.83;;;1.83;;
19778;SDS011;10049;59.306;18.090;2024-03-22T01:03:50;2.25;;;1.60;;
19778;SDS011;10049;59.306;18.090;2024-03-22T01:06:17;2.05;;;1.55;;
19778;SDS011;10049;59.306;18.090;2024-03-22T01:08:51;2.80;;;1.83;;
19778;SDS011;10049;59.306;18.090;2024-03-22T01:11:18;4.40;;;1.70;;
19778;SDS011;10049;59.306;18.090;2024-03-22T01:13:46;2.00;;;1.58;;
19778;SDS011;10049;59.306;18.090;2024-03-22T01:16:14;2.58;;;1.80;;
19778;SDS011;10049;59.306;18.090;2024-03-22T01:18:40;3.55;;;1.83;;
19778;SDS011;10049;59.306;18.090;2024-03-22T01:21:08;2.78;;;1.80;;
19778;SDS011;10049;59.306;18.090;2024-03-22T01:23:34;2.97;;;1.80;;
19778;SDS011;10049;59.306;18.090;2024-03-22T01:26:05;3.40;;;2.00;;
19778;SDS011;10049;59.306;18.090;2024-03-22T01:28:31;4.55;;;2.10;;
19778;SDS011;10049;59.306;18.090;2024-03-22T01:30:59;2.47;;;1.70;;
19778;SDS011;10049;59.306;18.090;2024-03-22T01:33:25;3.88;;;1.90;;
19778;SDS011;10049;59.306;18.090;2024-03-22T01:35:52;2.67;;;1.33;;
19778;SDS011;10049;59.306;18.090;2024-03-22T01:38:19;3.15;;;1.60;;
19778;SDS011;10049;59.306;18.090;2024-03-22T01:40:47;2.78;;;1.63;;
19778;SDS011;10049;59.306;18.090;2024-03-22T01:43:16;4.35;;;1.38;;
19778;SDS011;10049;59.306;18.090;2024-03-22T01:45:44;1.75;;;1.35;;
19778;SDS011;10049;59.306;18.090;2024-03-22T01:48:10;2.97;;;1.52;;
19778;SDS011;10049;59.306;18.090;2024-03-22T01:50:38;2.75;;;1.58;;
19778;SDS011;10049;59.306;18.090;2024-03-22T01:53:05;3.42;;;1.60;;
19778;SDS011;10049;59.306;18.090;2024-03-22T01:55:33;2.45;;;1.30;;
19778;SDS011;10049;59.306;18.090;2024-03-22T01:58:00;1.92;;;1.27;;
19778;SDS011;10049;59.306;18.090;2024-03-22T02:00:30;1.75;;;1.10;;
19778;SDS011;10049;59.306;18.090;2024-03-22T02:02:56;3.40;;;1.30;;
19778;SDS011;10049;59.306;18.090;2024-03-22T02:05:23;1.20;;;1.10;;
19778;SDS011;10049;59.306;18.090;2024-03-22T02:07:50;3.13;;;1.50;;
19778;SDS011;10049;59.306;18.090;2024-03-22T02:10:18;1.73;;;1.13;;
19778;SDS011;10049;59.306;18.090;2024-03-22T02:12:45;3.50;;;1.30;;
19778;SDS011;10049;59.306;18.090;2024-03-22T02:15:13;2.08;;;1.15;;
19778;SDS011;10049;59.306;18.090;2024-03-22T02:17:40;3.05;;;1.20;;
19778;SDS011;10049;59.306;18.090;2024-03-22T02:20:08;1.50;;;1.20;;
19778;SDS011;10049;59.306;18.090;2024-03-22T02:22:37;1.63;;;1.30;;
19778;SDS011;10049;59.306;18.090;2024-03-22T02:25:07;1.80;;;1.33;;
19778;SDS011;10049;59.306;18.090;2024-03-22T02:27:34;1.08;;;0.93;;
19778;SDS011;10049;59.306;18.090;2024-03-22T02:30:02;1.45;;;1.10;;
19778;SDS011;10049;59.306;18.090;2024-03-22T02:32:28;4.15;;;1.20;;
19778;SDS011;10049;59.306;18.090;2024-03-22T02:34:56;2.22;;;1.10;;
19778;SDS011;10049;59.306;18.090;2024-03-22T02:37:22;1.52;;;1.20;;
19778;SDS011;10049;59.306;18.090;2024-03-22T02:39:50;1.85;;;1.33;;
19778;SDS011;10049;59.306;18.090;2024-03-22T02:42:18;1.23;;;1.00;;
19778;SDS011;10049;59.306;18.090;2024-03-22T02:44:46;1.55;;;1.10;;
19778;SDS011;10049;59.306;18.090;2024-03-22T02:47:12;1.30;;;1.17;;
19778;SDS011;10049;59.306;18.090;2024-03-22T02:49:40;2.58;;;1.27;;
19778;SDS011;10049;59.306;18.090;2024-03-22T02:52:07;1.95;;;1.20;;
19778;SDS011;10049;59.306;18.090;2024-03-22T02:54:35;1.55;;;1.30;;
19778;SDS011;10049;59.306;18.090;2024-03-22T02:57:01;2.20;;;1.42;;
19778;SDS011;10049;59.306;18.090;2024-03-22T02:59:30;2.05;;;1.42;;
19778;SDS011;10049;59.306;18.090;2024-03-22T03:01:56;2.05;;;1.20;;
19778;SDS011;10049;59.306;18.090;2024-03-22T03:04:24;1.40;;;1.10;;
19778;SDS011;10049;59.306;18.090;2024-03-22T03:06:53;1.15;;;1.05;;
19778;SDS011;10049;59.306;18.090;2024-03-22T03:09:21;1.52;;;1.38;;
19778;SDS011;10049;59.306;18.090;2024-03-22T03:11:47;2.58;;;1.20;;
19778;SDS011;10049;59.306;18.090;2024-03-22T03:14:15;1.35;;;1.10;;
19778;SDS011;10049;59.306;18.090;2024-03-22T03:16:42;0.80;;;0.80;;
19778;SDS011;10049;59.306;18.090;2024-03-22T03:19:10;2.00;;;1.33;;
19778;SDS011;10049;59.306;18.090;2024-03-22T03:21:38;1.73;;;1.30;;
19778;SDS011;10049;59.306;18.090;2024-03-22T03:24:06;2.75;;;1.10;;
19778;SDS011;10049;59.306;18.090;2024-03-22T03:26:35;1.73;;;1.20;;
19778;SDS011;10049;59.306;18.090;2024-03-22T03:29:02;1.33;;;1.02;;
19778;SDS011;10049;59.306;18.090;2024-03-22T03:31:32;1.45;;;1.10;;
19778;SDS011;10049;59.306;18.090;2024-03-22T03:34:01;2.65;;;1.10;;
19778;SDS011;10049;59.306;18.090;2024-03-22T03:36:28;1.30;;;1.10;;
19778;SDS011;10049;59.306;18.090;2024-03-22T03:38:55;1.70;;;1.20;;
19778;SDS011;10049;59.306;18.090;2024-03-22T03:41:22;1.40;;;1.10;;
19778;SDS011;10049;59.306;18.090;2024-03-22T03:43:52;1.23;;;1.10;;
19778;SDS011;10049;59.306;18.090;2024-03-22T03:46:19;0.93;;;0.90;;
19778;SDS011;10049;59.306;18.090;2024-03-22T03:48:46;1.17;;;1.05;;
19778;SDS011;10049;59.306;18.090;2024-03-22T03:51:15;1.30;;;1.20;;
19778;SDS011;10049;59.306;18.090;2024-03-22T03:53:41;1.15;;;1.00;;
19778;SDS011;10049;59.306;18.090;2024-03-22T03:56:09;1.90;;;1.30;;
19778;SDS011;10049;59.306;18.090;2024-03-22T03:58:35;1.30;;;1.10;;
19778;SDS011;10049;59.306;18.090;2024-03-22T04:01:05;1.30;;;1.00;;
19778;SDS011;10049;59.306;18.090;2024-03-22T04:03:31;1.40;;;1.30;;
19778;SDS011;10049;59.306;18.090;2024-03-22T04:05:59;1.48;;;1.15;;
19778;SDS011;10049;59.306;18.090;2024-03-22T04:08:27;1.40;;;1.10;;
19778;SDS011;10049;59.306;18.090;2024-03-22T04:10:56;1.08;;;0.98;;
19778;SDS011;10049;59.306;18.090;2024-03-22T04:13:23;1.55;;;1.27;;
19778;SDS011;10049;59.306;18.090;2024-03-22T04:15:51;1.70;;;1.23;;
19778;SDS011;10049;59.306;18.090;2024-03-22T04:18:17;1.40;;;1.08;;
19778;SDS011;10049;59.306;18.090;2024-03-22T04:20:52;1.65;;;1.10;;
19778;SDS011;10049;59.306;18.090;2024-03-22T04:23:19;3.00;;;1.33;;
19778;SDS011;10049;59.306;18.090;2024-03-22T04:25:52;2.17;;;1.20;;
19778;SDS011;10049;59.306;18.090;2024-03-22T04:28:19;0.95;;;0.90;;
19778;SDS011;10049;59.306;18.090;2024-03-22T04:30:54;1.10;;;1.00;;
19778;SDS011;10049;59.306;18.090;2024-03-22T04:33:20;1.63;;;1.10;;
19778;SDS011;10049;59.306;18.090;2024-03-22T04:35:48;1.25;;;1.10;;
19778;SDS011;10049;59.306;18.090;2024-03-22T04:38:14;1.02;;;0.90;;
19778;SDS011;10049;59.306;18.090;2024-03-22T04:40:41;1.75;;;1.00;;
19778;SDS011;10049;59.306;18.090;2024-03-22T04:43:10;1.35;;;1.17;;
19778;SDS011;10049;59.306;18.090;2024-03-22T04:45:40;1.00;;;0.90;;
19778;SDS011;10049;59.306;18.090;2024-03-22T04:48:08;3.80;;;1.20;;
19778;SDS011;10049;59.306;18.090;2024-03-22T04:50:35;2.58;;;1.15;;
19778;SDS011;10049;59.306;18.090;2024-03-22T04:53:04;1.20;;;1.10;;
19778;SDS011;10049;59.306;18.090;2024-03-22T04:55:30;1.30;;;1.20;;
19778;SDS011;10049;59.306;18.090;2024-03-22T04:57:58;1.23;;;1.10;;
19778;SDS011;10049;59.306;18.090;2024-03-22T05:00:28;1.08;;;0.90;;
19778;SDS011;10049;59.306;18.090;2024-03-22T05:02:56;1.77;;;1.27;;
19778;SDS011;10049;59.306;18.090;2024-03-22T05:05:23;2.25;;;1.00;;
19778;SDS011;10049;59.306;18.090;2024-03-22T05:07:50;2.10;;;1.08;;
19778;SDS011;10049;59.306;18.090;2024-03-22T05:10:17;1.52;;;1.08;;
19778;SDS011;10049;59.306;18.090;2024-03-22T05:12:45;1.92;;;1.10;;
19778;SDS011;10049;59.306;18.090;2024-03-22T05:15:12;1.95;;;1.10;;
19778;SDS011;10049;59.306;18.090;2024-03-22T05:17:43;3.10;;;1.25;;
19778;SDS011;10049;59.306;18.090;2024-03-22T05:20:10;1.73;;;1.20;;
19778;SDS011;10049;59.306;18.090;2024-03-22T05:22:38;2.42;;;1.10;;
19778;SDS011;10049;59.306;18.090;2024-03-22T05:25:05;1.58;;;1.27;;
19778;SDS011;10049;59.306;18.090;2024-03-22T05:27:34;2.28;;;1.20;;
19778;SDS011;10049;59.306;18.090;2024-03-22T05:30:01;1.30;;;1.08;;
19778;SDS011;10049;59.306;18.090;2024-03-22T05:32:30;1.55;;;0.93;;
19778;SDS011;10049;59.306;18.090;2024-03-22T05:35:01;1.30;;;1.20;;
19778;SDS011;10049;59.306;18.090;2024-03-22T05:37:28;1.40;;;1.20;;
19778;SDS011;10049;59.306;18.090;2024-03-22T05:39:56;2.08;;;1.30;;
19778;SDS011;10049;59.306;18.090;2024-03-22T05:42:24;1.63;;;1.15;;
19778;SDS011;10049;59.306;18.090;2024-03-22T05:44:50;1.67;;;1.20;;
19778;SDS011;10049;59.306;18.090;2024-03-22T05:47:20;1.85;;;1.20;;
19778;SDS011;10049;59.306;18.090;2024-03-22T05:49:48;2.55;;;1.35;;
19778;SDS011;10049;59.306;18.090;2024-03-22T05:52:18;1.38;;;1.17;;
19778;SDS011;10049;59.306;18.090;2024-03-22T05:54:44;1.80;;;1.25;;
19778;SDS011;10049;59.306;18.090;2024-03-22T05:57:13;2.22;;;1.20;;
19778;SDS011;10049;59.306;18.090;2024-03-22T05:59:40;1.05;;;0.95;;
19778;SDS011;10049;59.306;18.090;2024-03-22T06:02:07;2.72;;;1.23;;
19778;SDS011;10049;59.306;18.090;2024-03-22T06:04:34;1.42;;;1.10;;
19778;SDS011;10049;59.306;18.090;2024-03-22T06:07:04;1.67;;;1.30;;
19778;SDS011;10049;59.306;18.090;2024-03-22T06:09:36;1.10;;;1.00;;
19778;SDS011;10049;59.306;18.090;2024-03-22T06:12:13;2.28;;;1.38;;
19778;SDS011;10049;59.306;18.090;2024-03-22T06:14:41;2.42;;;1.50;;
19778;SDS011;10049;59.306;18.090;2024-03-22T06:17:13;4.18;;;1.00;;
19778;SDS011;10049;59.306;18.090;2024-03-22T06:19:40;2.92;;;1.50;;
19778;SDS011;10049;59.306;18.090;2024-03-22T06:22:09;1.73;;;1.38;;
19778;SDS011;10049;59.306;18.090;2024-03-22T06:24:40;1.80;;;1.13;;
19778;SDS011;10049;59.306;18.090;2024-03-22T06:27:08;2.13;;;1.27;;
19778;SDS011;10049;59.306;18.090;2024-03-22T06:32:40;1.33;;;1.10;;
19778;SDS011;10049;59.306;18.090;2024-03-22T06:35:07;2.08;;;1.10;;
19778;SDS011;10049;59.306;18.090;2024-03-22T06:37:34;1.33;;;1.20;;
19778;SDS011;10049;59.306;18.090;2024-03-22T06:40:05;1.48;;;1.30;;
19778;SDS011;10049;59.306;18.090;2024-03-22T06:42:34;1.73;;;1.20;;
19778;SDS011;10049;59.306;18.090;2024-03-22T06:45:04;1.63;;;1.05;;
19778;SDS011;10049;59.306;18.090;2024-03-22T06:47:30;1.30;;;1.20;;
19778;SDS011;10049;59.306;18.090;2024-03-22T06:49:58;1.10;;;1.02;;
19778;SDS011;10049;59.306;18.090;2024-03-22T06:52:25;1.77;;;1.25;;
19778;SDS011;10049;59.306;18.090;2024-03-22T06:54:55;2.95;;;1.30;;
19778;SDS011;10049;59.306;18.090;2024-03-22T07:00:10;1.98;;;1.40;;
19778;SDS011;10049;59.306;18.090;2024-03-22T07:02:38;1.40;;;1.02;;
19778;SDS011;10049;59.306;18.090;2024-03-22T07:05:07;2.22;;;1.58;;
19778;SDS011;10049;59.306;18.090;2024-03-22T07:07:35;1.90;;;1.25;;
19778;SDS011;10049;59.306;18.090;2024-03-22T07:10:03;1.17;;;1.00;;
19778;SDS011;10049;59.306;18.090;2024-03-22T07:12:31;1.65;;;0.95;;
19778;SDS011;10049;59.306;18.090;2024-03-22T07:15:14;1.10;;;1.00;;
19778;SDS011;10049;59.306;18.090;2024-03-22T07:17:42;1.30;;;1.20;;
19778;SDS011;10049;59.306;18.090;2024-03-22T07:20:08;1.10;;;1.00;;
19778;SDS011;10049;59.306;18.090;2024-03-22T07:22:38;0.93;;;0.90;;
19778;SDS011;10049;59.306;18.090;2024-03-22T07:25:05;1.85;;;0.90;;
19778;SDS011;10049;59.306;18.090;2024-03-22T07:27:35;2.00;;;1.05;;
19778;SDS011;10049;59.306;18.090;2024-03-22T07:30:03;3.45;;;1.20;;
19778;SDS011;10049;59.306;18.090;2024-03-22T07:32:33;1.88;;;1.10;;
19778;SDS011;10049;59.306;18.090;2024-03-22T07:34:59;1.00;;;1.00;;
19778;SDS011;10049;59.306;18.090;2024-03-22T07:37:27;2.42;;;1.05;;
19778;SDS011;10049;59.306;18.090;2024-03-22T07:39:53;1.30;;;1.00;;
19778;SDS011;10049;59.306;18.090;2024-03-22T07:42:21;1.33;;;1.20;;
19778;SDS011;10049;59.306;18.090;2024-03-22T07:44:47;1.52;;;1.00;;
19778;SDS011;10049;59.306;18.090;2024-03-22T07:47:15;1.42;;;1.20;;
19778;SDS011;10049;59.306;18.090;2024-03-22T07:49:44;1.80;;;1.15;;
19778;SDS011;10049;59.306;18.090;2024-03-22T07:52:11;1.63;;;1.15;;
19778;SDS011;10049;59.306;18.090;2024-03-22T07:54:38;2.17;;;1.25;;
19778;SDS011;10049;59.306;18.090;2024-03-22T07:57:06;1.88;;;1.40;;
19778;SDS011;10049;59.306;18.090;2024-03-22T07:59:36;1.95;;;1.20;;
19778;SDS011;10049;59.306;18.090;2024-03-22T08:02:05;1.35;;;1.10;;
19778;SDS011;10049;59.306;18.090;2024-03-22T08:04:31;1.77;;;1.20;;
19778;SDS011;10049;59.306;18.090;2024-03-22T08:07:02;1.33;;;1.00;;
19778;SDS011;10049;59.306;18.090;2024-03-22T08:09:29;1.38;;;0.85;;
19778;SDS011;10049;59.306;18.090;2024-03-22T08:11:59;1.98;;;0.98;;
19778;SDS011;10049;59.306;18.090;2024-03-22T08:14:26;1.10;;;1.00;;
19778;SDS011;10049;59.306;18.090;2024-03-22T08:16:53;2.05;;;1.15;;
19778;SDS011;10049;59.306;18.090;2024-03-22T08:19:20;1.38;;;1.10;;
19778;SDS011;10049;59.306;18.090;2024-03-22T08:21:47;1.35;;;1.00;;
19778;SDS011;10049;59.306;18.090;2024-03-22T08:24:16;1.85;;;0.90;;
19778;SDS011;10049;59.306;18.090;2024-03-22T08:26:45;1.67;;;0.98;;
19778;SDS011;10049;59.306;18.090;2024-03-22T08:29:12;1.15;;;1.00;;
19778;SDS011;10049;59.306;18.090;2024-03-22T08:31:40;1.60;;;0.90;;
19778;SDS011;10049;59.306;18.090;2024-03-22T08:34:07;2.83;;;1.20;;
19778;SDS011;10049;59.306;18.090;2024-03-22T08:36:35;0.88;;;0.88;;
19778;SDS011;10049;59.306;18.090;2024-03-22T08:39:03;1.83;;;1.02;;
19778;SDS011;10049;59.306;18.090;2024-03-22T08:41:32;2.65;;;1.15;;
19778;SDS011;10049;59.306;18.090;2024-03-22T08:44:00;1.92;;;1.10;;
19778;SDS011;10049;59.306;18.090;2024-03-22T08:46:26;1.45;;;1.17;;
19778;SDS011;10049;59.306;18.090;2024-03-22T08:48:54;0.90;;;0.90;;
19778;SDS011;10049;59.306;18.090;2024-03-22T08:51:21;1.45;;;1.00;;
19778;SDS011;10049;59.306;18.090;2024-03-22T08:53:48;2.65;;;1.20;;
19778;SDS011;10049;59.306;18.090;2024-03-22T08:56:15;1.17;;;1.02;;
19778;SDS011;10049;59.306;18.090;2024-03-22T08:58:44;1.30;;;0.80;;
19778;SDS011;10049;59.306;18.090;2024-03-22T09:01:11;1.00;;;0.90;;
19778;SDS011;10049;59.306;18.090;2024-03-22T09:03:40;0.85;;;0.85;;
19778;SDS011;10049;59.306;18.090;2024-03-22T09:06:10;0.93;;;0.88;;
19778;SDS011;10049;59.306;18.090;2024-03-22T09:08:40;1.13;;;0.80;;
19778;SDS011;10049;59.306;18.090;2024-03-22T09:11:06;0.75;;;0.70;;
19778;SDS011;10049;59.306;18.090;2024-03-22T09:13:38;0.82;;;0.80;;
19778;SDS011;10049;59.306;18.090;2024-03-22T09:16:06;0.68;;;0.68;;
19778;SDS011;10049;59.306;18.090;2024-03-22T09:18:34;1.85;;;0.90;;
19778;SDS011;10049;59.306;18.090;2024-03-22T09:21:01;0.80;;;0.80;;
19778;SDS011;10049;59.306;18.090;2024-03-22T09:23:29;0.85;;;0.85;;
19778;SDS011;10049;59.306;18.090;2024-03-22T09:25:56;1.33;;;0.93;;
19778;SDS011;10049;59.306;18.090;2024-03-22T09:28:23;0.93;;;0.80;;
19778;SDS011;10049;59.306;18.090;2024-03-22T09:30:51;0.90;;;0.90;;
19778;SDS011;10049;59.306;18.090;2024-03-22T09:33:20;1.38;;;0.90;;
19778;SDS011;10049;59.306;18.090;2024-03-22T09:35:47;1.00;;;0.90;;
19778;SDS011;10049;59.306;18.090;2024-03-22T09:38:15;4.32;;;0.90;;
19778;SDS011;10049;59.306;18.090;2024-03-22T09:40:43;1.35;;;1.00;;
19778;SDS011;10049;59.306;18.090;2024-03-22T09:43:10;1.20;;;0.90;;
19778;SDS011;10049;59.306;18.090;2024-03-22T09:45:40;1.85;;;1.10;;
19778;SDS011;10049;59.306;18.090;2024-03-22T09:48:09;1.35;;;1.00;;
19778;SDS011;10049;59.306;18.090;2024-03-22T09:50:37;0.93;;;0.93;;
19778;SDS011;10049;59.306;18.090;2024-03-22T09:53:05;1.52;;;1.20;;
19778;SDS011;10049;59.306;18.090;2024-03-22T09:55:35;1.30;;;1.20;;
19778;SDS011;10049;59.306;18.090;2024-03-22T09:58:13;2.22;;;1.10;;
19778;SDS011;10049;59.306;18.090;2024-03-22T10:00:41;2.33;;;1.33;;
19778;SDS011;10049;59.306;18.090;2024-03-22T10:03:09;1.23;;;1.10;;
19778;SDS011;10049;59.306;18.090;2024-03-22T10:05:39;1.77;;;1.30;;
19778;SDS011;10049;59.306;18.090;2024-03-22T10:08:06;1.48;;;1.38;;
19778;SDS011;10049;59.306;18.090;2024-03-22T10:10:33;1.70;;;1.40;;
19778;SDS011;10049;59.306;18.090;2024-03-22T10:13:01;2.53;;;1.55;;
19778;SDS011;10049;59.306;18.090;2024-03-22T10:15:27;2.53;;;1.80;;
19778;SDS011;10049;59.306;18.090;2024-03-22T10:17:56;1.50;;;1.40;;
19778;SDS011;10049;59.306;18.090;2024-03-22T10:20:23;1.77;;;1.52;;
19778;SDS011;10049;59.306;18.090;2024-03-22T10:23:00;3.45;;;1.60;;
19778;SDS011;10049;59.306;18.090;2024-03-22T10:25:26;2.60;;;1.60;;
19778;SDS011;10049;59.306;18.090;2024-03-22T10:27:54;2.83;;;1.70;;
19778;SDS011;10049;59.306;18.090;2024-03-22T10:30:21;2.30;;;1.80;;
19778;SDS011;10049;59.306;18.090;2024-03-22T10:32:49;2.45;;;1.58;;
19778;SDS011;10049;59.306;18.090;2024-03-22T10:35:15;1.60;;;1.50;;
19778;SDS011;10049;59.306;18.090;2024-03-22T10:37:43;1.60;;;1.48;;
19778;SDS011;10049;59.306;18.090;2024-03-22T10:40:12;1.70;;;1.60;;
19778;SDS011;10049;59.306;18.090;2024-03-22T10:42:40;1.80;;;1.50;;
19778;SDS011;10049;59.306;18.090;2024-03-22T10:45:08;3.47;;;2.00;;
19778;SDS011;10049;59.306;18.090;2024-03-22T10:47:37;4.10;;;2.10;;
19778;SDS011;10049;59.306;18.090;2024-03-22T10:50:04;6.43;;;1.60;;
19778;SDS011;10049;59.306;18.090;2024-03-22T10:52:33;2.92;;;1.80;;
19778;SDS011;10049;59.306;18.090;2024-03-22T10:55:01;1.60;;;1.50;;
19778;SDS011;10049;59.306;18.090;2024-03-22T10:57:33;3.60;;;2.08;;
19778;SDS011;10049;59.306;18.090;2024-03-22T11:00:03;2.50;;;1.80;;
19778;SDS011;10049;59.306;18.090;2024-03-22T11:02:35;3.90;;;1.85;;
19778;SDS011;10049;59.306;18.090;2024-03-22T11:05:02;2.95;;;1.80;;
19778;SDS011;10049;59.306;18.090;2024-03-22T11:07:30;2.75;;;1.90;;
19778;SDS011;10049;59.306;18.090;2024-03-22T11:09:57;6.07;;;1.90;;
19778;SDS011;10049;59.306;18.090;2024-03-22T11:12:25;3.33;;;2.10;;
19778;SDS011;10049;59.306;18.090;2024-03-22T11:14:54;2.35;;;1.60;;
19778;SDS011;10049;59.306;18.090;2024-03-22T11:17:22;3.00;;;2.10;;
19778;SDS011;10049;59.306;18.090;2024-03-22T11:19:50;2.13;;;1.65;;
19778;SDS011;10049;59.306;18.090;2024-03-22T11:22:19;2.03;;;1.63;;
19778;SDS011;10049;59.306;18.090;2024-03-22T11:24:46;2.33;;;1.83;;
19778;SDS011;10049;59.306;18.090;2024-03-22T11:27:17;2.63;;;1.92;;
19778;SDS011;10049;59.306;18.090;2024-03-22T11:29:44;3.47;;;2.08;;
19778;SDS011;10049;59.306;18.090;2024-03-22T11:32:14;4.75;;;1.98;;
19778;SDS011;10049;59.306;18.090;2024-03-22T11:34:41;3.05;;;1.90;;
19778;SDS011;10049;59.306;18.090;2024-03-22T11:37:09;2.78;;;1.83;;
19778;SDS011;10049;59.306;18.090;2024-03-22T11:39:35;2.50;;;2.10;;
19778;SDS011;10049;59.306;18.090;2024-03-22T11:42:03;2.38;;;1.92;;
19778;SDS011;10049;59.306;18.090;2024-03-22T11:44:30;3.45;;;1.85;;
19778;SDS011;10049;59.306;18.090;2024-03-22T11:46:59;2.72;;;1.88;;
19778;SDS011;10049;59.306;18.090;2024-03-22T11:49:26;2.08;;;1.60;;
19778;SDS011;10049;59.306;18.090;2024-03-22T11:51:54;2.22;;;1.70;;
19778;SDS011;10049;59.306;18.090;2024-03-22T11:54:23;3.47;;;2.20;;
19778;SDS011;10049;59.306;18.090;2024-03-22T11:56:51;2.00;;;1.65;;
19778;SDS011;10049;59.306;18.090;2024-03-22T11:59:19;1.98;;;1.55;;
19778;SDS011;10049;59.306;18.090;2024-03-22T12:01:46;2.83;;;1.77;;
19778;SDS011;10049;59.306;18.090;2024-03-22T12:04:14;2.83;;;2.00;;
19778;SDS011;10049;59.306;18.090;2024-03-22T12:06:44;3.03;;;1.73;;
19778;SDS011;10049;59.306;18.090;2024-03-22T12:09:11;2.08;;;1.63;;
19778;SDS011;10049;59.306;18.090;2024-03-22T12:11:39;2.72;;;1.83;;
19778;SDS011;10049;59.306;18.090;2024-03-22T12:14:06;2.00;;;1.60;;
19778;SDS011;10049;59.306;18.090;2024-03-22T12:16:33;1.92;;;1.50;;
19778;SDS011;10049;59.306;18.090;2024-03-22T12:19:01;2.20;;;1.77;;
19778;SDS011;10049;59.306;18.090;2024-03-22T12:21:32;2.55;;;1.70;;
19778;SDS011;10049;59.306;18.090;2024-03-22T12:24:00;2.75;;;1.65;;
19778;SDS011;10049;59.306;18.090;2024-03-22T12:26:28;2.38;;;1.50;;
19778;SDS011;10049;59.306;18.090;2024-03-22T12:28:54;2.40;;;1.50;;
19778;SDS011;10049;59.306;18.090;2024-03-22T12:31:22;4.30;;;1.70;;
19778;SDS011;10049;59.306;18.090;2024-03-22T12:33:48;1.65;;;1.50;;
19778;SDS011;10049;59.306;18.090;2024-03-22T12:36:16;1.90;;;1.50;;
19778;SDS011;10049;59.306;18.090;2024-03-22T12:38:42;2.22;;;1.50;;
19778;SDS011;10049;59.306;18.090;2024-03-22T12:41:14;1.60;;;1.40;;
19778;SDS011;10049;59.306;18.090;2024-03-22T12:43:40;4.13;;;1.88;;
19778;SDS011;10049;59.306;18.090;2024-03-22T12:46:08;3.30;;;1.70;;
19778;SDS011;10049;59.306;18.090;2024-03-22T12:48:34;2.83;;;1.40;;
19778;SDS011;10049;59.306;18.090;2024-03-22T12:51:03;2.55;;;1.55;;
19778;SDS011;10049;59.306;18.090;2024-03-22T12:53:29;2.90;;;1.70;;
19778;SDS011;10049;59.306;18.090;2024-03-22T12:55:57;2.53;;;1.90;;
19778;SDS011;10049;59.306;18.090;2024-03-22T12:58:25;1.77;;;1.52;;
19778;SDS011;10049;59.306;18.090;2024-03-22T13:00:53;1.85;;;1.63;;
19778;SDS011;10049;59.306;18.090;2024-03-22T13:03:20;1.90;;;1.60;;
19778;SDS011;10049;59.306;18.090;2024-03-22T13:05:48;2.38;;;1.88;;
19778;SDS011;10049;59.306;18.090;2024-03-22T13:08:14;2.08;;;1.50;;
19778;SDS011;10049;59.306;18.090;2024-03-22T13:10:43;2.70;;;1.83;;
19778;SDS011;10049;59.306;18.090;2024-03-22T13:13:09;2.97;;;1.85;;
19778;SDS011;10049;59.306;18.090;2024-03-22T13:15:41;2.97;;;1.52;;
19778;SDS011;10049;59.306;18.090;2024-03-22T13:18:08;2.45;;;1.60;;
19778;SDS011;10049;59.306;18.090;2024-03-22T13:20:35;2.35;;;1.85;;
19778;SDS011;10049;59.306;18.090;2024-03-22T13:23:02;2.13;;;1.70;;
19778;SDS011;10049;59.306;18.090;2024-03-22T13:25:30;2.95;;;1.92;;
19778;SDS011;10049;59.306;18.090;2024-03-22T13:27:56;2.72;;;1.50;;
19778;SDS011;10049;59.306;18.090;2024-03-22T13:30:24;2.33;;;1.80;;
19778;SDS011;10049;59.306;18.090;2024-03-22T13:32:52;1.92;;;1.58;;
19778;SDS011;10049;59.306;18.090;2024-03-22T13:35:19;2.28;;;1.60;;
19778;SDS011;10049;59.306;18.090;2024-03-22T13:37:46;2.65;;;1.40;;
19778;SDS011;10049;59.306;18.090;2024-03-22T13:40:13;2.08;;;1.35;;
19778;SDS011;10049;59.306;18.090;2024-03-22T13:42:40;2.38;;;1.38;;
19778;SDS011;10049;59.306;18.090;2024-03-22T13:45:08;4.45;;;1.80;;
19778;SDS011;10049;59.306;18.090;2024-03-22T13:47:36;2.42;;;1.48;;
19778;SDS011;10049;59.306;18.090;2024-03-22T13:50:08;2.45;;;1.63;;
19778;SDS011;10049;59.306;18.090;2024-03-22T13:52:34;1.67;;;1.40;;
19778;SDS011;10049;59.306;18.090;2024-03-22T13:55:03;1.60;;;1.40;;
19778;SDS011;10049;59.306;18.090;2024-03-22T13:57:30;2.67;;;1.48;;
19778;SDS011;10049;59.306;18.090;2024-03-22T14:00:00;4.15;;;1.45;;
19778;SDS011;10049;59.306;18.090;2024-03-22T14:02:31;2.03;;;1.40;;
19778;SDS011;10049;59.306;18.090;2024-03-22T14:04:59;1.25;;;1.13;;
19778;SDS011;10049;59.306;18.090;2024-03-22T14:07:34;1.67;;;1.30;;
19778;SDS011;10049;59.306;18.090;2024-03-22T14:10:23;2.03;;;1.25;;
19778;SDS011;10049;59.306;18.090;2024-03-22T14:12:52;2.42;;;1.60;;
19778;SDS011;10049;59.306;18.090;2024-03-22T14:15:19;2.38;;;1.20;;
19778;SDS011;10049;59.306;18.090;2024-03-22T14:17:47;1.48;;;0.90;;
19778;SDS011;10049;59.306;18.090;2024-03-22T14:20:13;0.95;;;0.90;;
19778;SDS011;10049;59.306;18.090;2024-03-22T14:22:43;1.30;;;1.08;;
19778;SDS011;10049;59.306;18.090;2024-03-22T14:25:11;3.15;;;1.10;;
19778;SDS011;10049;59.306;18.090;2024-03-22T14:27:39;1.48;;;1.00;;
19778;SDS011;10049;59.306;18.090;2024-03-22T14:30:09;2.05;;;0.93;;
19778;SDS011;10049;59.306;18.090;2024-03-22T14:32:38;1.98;;;0.93;;
19778;SDS011;10049;59.306;18.090;2024-03-22T14:35:04;1.50;;;0.90;;
19778;SDS011;10049;59.306;18.090;2024-03-22T14:37:32;1.90;;;0.75;;
19778;SDS011;10049;59.306;18.090;2024-03-22T14:40:00;2.90;;;0.80;;
19778;SDS011;10049;59.306;18.090;2024-03-22T14:42:30;2.13;;;0.80;;
19778;SDS011;10049;59.306;18.090;2024-03-22T14:44:57;0.63;;;0.63;;